General Aviation Weather

Text Reports

Enter one or more of the following location identifiers separated by a space:

Zip Code, Four-Character ICAO or Three-Character IATA airport codes.

METAR - Aviation Routine Weather Report
KODX - Ord, Nebraska
Updated at 8:53 PM GMT on September 01, 2014 (3:53 PM CDT):
METAR KODX 012053Z AUTO VRB04KT 10SM SCT080 24/12 A2989 RMK AO2 SLP115 T02390117 58007
TAF - Terminal Area Forecast
KODX - Ord, Nebraska
Updated at 8:53 PM GMT on September 01, 2014 (3:53 PM CDT):
No TAF is currently available for this location.
Decoded:
No decoded TAF is available.
PIREP - Pilot Weather Report
KODX - Ord, Nebraska
Updated at 8:53 PM GMT on September 01, 2014 (3:53 PM CDT):
No PIREP is currently available for this location.
AIRMET - Airmens Meteorological Information
KODX - Ord, Nebraska
Updated at 8:53 PM GMT on September 01, 2014 (3:53 PM CDT):
No AIRMET is currently available for this location.
SIGMET - Significant Meteorological Information
KODX - Ord, Nebraska
Updated at 8:53 PM GMT on September 01, 2014 (3:53 PM CDT):
No SIGMET is currently available for this location.
NOTAM - Notice to Airmen
KODX - Ord, Nebraska
Updated at 8:53 PM GMT on September 01, 2014 (3:53 PM CDT):
No NOTAM is currently available for this location.
Forecast Area
KODX - Ord, Nebraska
Updated at 8:53 PM GMT on September 01, 2014 (3:53 PM CDT):
No NOTAM is currently available for this location.
Aviation Weather Maps